sensor_id;sensor_type;location;lat;lon;timestamp;pressure;altitude;pressure_sealevel;temperature;humidity
42771;BME280;28426;42.872;25.314;2023-02-01T00:01:10;96975.34;;;-3.39;94.52
42771;BME280;28426;42.872;25.314;2023-02-01T00:03:40;96983.94;;;-3.11;97.16
42771;BME280;28426;42.872;25.314;2023-02-01T00:06:11;96981.97;;;-2.82;96.51
42771;BME280;28426;42.872;25.314;2023-02-01T00:08:42;96980.84;;;-2.78;90.58
42771;BME280;28426;42.872;25.314;2023-02-01T00:11:12;96983.13;;;-2.86;87.64
42771;BME280;28426;42.872;25.314;2023-02-01T00:13:43;96972.34;;;-3.07;86.68
42771;BME280;28426;42.872;25.314;2023-02-01T00:16:18;96982.25;;;-3.25;87.72
42771;BME280;28426;42.872;25.314;2023-02-01T00:18:51;96986.41;;;-3.36;87.40
42771;BME280;28426;42.872;25.314;2023-02-01T00:21:22;96985.34;;;-3.46;87.60
42771;BME280;28426;42.872;25.314;2023-02-01T00:23:52;96981.16;;;-3.49;89.27
42771;BME280;28426;42.872;25.314;2023-02-01T00:26:30;96989.06;;;-3.50;88.61
42771;BME280;28426;42.872;25.314;2023-02-01T00:29:03;96976.75;;;-3.48;89.14
42771;BME280;28426;42.872;25.314;2023-02-01T00:31:37;96977.16;;;-3.55;88.58
42771;BME280;28426;42.872;25.314;2023-02-01T00:34:10;96980.50;;;-3.52;88.34
42771;BME280;28426;42.872;25.314;2023-02-01T00:36:42;96973.44;;;-3.50;92.50
42771;BME280;28426;42.872;25.314;2023-02-01T00:39:13;96969.59;;;-3.32;94.60
42771;BME280;28426;42.872;25.314;2023-02-01T00:41:45;96971.03;;;-3.00;96.22
42771;BME280;28426;42.872;25.314;2023-02-01T00:44:15;96974.06;;;-2.80;93.86
42771;BME280;28426;42.872;25.314;2023-02-01T00:46:48;96965.34;;;-2.55;97.01
42771;BME280;28426;42.872;25.314;2023-02-01T00:49:19;96971.19;;;-2.38;96.42
42771;BME280;28426;42.872;25.314;2023-02-01T00:51:50;96965.63;;;-2.20;95.81
42771;BME280;28426;42.872;25.314;2023-02-01T00:54:20;96976.66;;;-2.04;95.56
42771;BME280;28426;42.872;25.314;2023-02-01T00:56:51;96966.88;;;-1.89;95.55
42771;BME280;28426;42.872;25.314;2023-02-01T00:59:22;96964.09;;;-1.74;94.64
42771;BME280;28426;42.872;25.314;2023-02-01T01:01:55;96963.09;;;-1.60;94.42
42771;BME280;28426;42.872;25.314;2023-02-01T01:04:26;96964.81;;;-1.48;94.33
42771;BME280;28426;42.872;25.314;2023-02-01T01:06:56;96957.00;;;-1.36;93.82
42771;BME280;28426;42.872;25.314;2023-02-01T01:09:27;96955.38;;;-1.26;93.23
42771;BME280;28426;42.872;25.314;2023-02-01T01:11:57;96960.75;;;-1.16;93.06
42771;BME280;28426;42.872;25.314;2023-02-01T01:14:31;96962.56;;;-1.05;92.44
42771;BME280;28426;42.872;25.314;2023-02-01T01:17:05;96956.75;;;-0.97;92.17
42771;BME280;28426;42.872;25.314;2023-02-01T01:19:35;96954.38;;;-0.89;91.74
42771;BME280;28426;42.872;25.314;2023-02-01T01:22:06;96961.69;;;-0.81;91.21
42771;BME280;28426;42.872;25.314;2023-02-01T01:24:36;96954.31;;;-0.76;90.91
42771;BME280;28426;42.872;25.314;2023-02-01T01:27:07;96954.78;;;-0.71;90.33
42771;BME280;28426;42.872;25.314;2023-02-01T01:29:37;96955.25;;;-0.66;90.03
42771;BME280;28426;42.872;25.314;2023-02-01T01:32:11;96951.44;;;-0.61;88.87
42771;BME280;28426;42.872;25.314;2023-02-01T01:34:41;96955.50;;;-0.57;87.52
42771;BME280;28426;42.872;25.314;2023-02-01T01:37:12;96971.69;;;-0.52;87.75
42771;BME280;28426;42.872;25.314;2023-02-01T01:39:43;96960.25;;;-0.51;87.71
42771;BME280;28426;42.872;25.314;2023-02-01T01:42:13;96961.81;;;-0.48;87.36
42771;BME280;28426;42.872;25.314;2023-02-01T01:44:59;96947.78;;;-0.47;86.87
42771;BME280;28426;42.872;25.314;2023-02-01T01:47:38;96953.59;;;-0.44;86.50
42771;BME280;28426;42.872;25.314;2023-02-01T01:50:16;96964.91;;;-0.43;86.54
42771;BME280;28426;42.872;25.314;2023-02-01T01:52:50;96963.84;;;-0.41;86.31
42771;BME280;28426;42.872;25.314;2023-02-01T01:55:24;96965.53;;;-0.40;85.70
42771;BME280;28426;42.872;25.314;2023-02-01T01:57:59;96966.34;;;-0.39;85.74
42771;BME280;28426;42.872;25.314;2023-02-01T02:00:31;96961.94;;;-0.38;85.95
42771;BME280;28426;42.872;25.314;2023-02-01T02:03:11;96966.94;;;-0.35;85.08
42771;BME280;28426;42.872;25.314;2023-02-01T02:05:43;96967.06;;;-0.37;84.25
42771;BME280;28426;42.872;25.314;2023-02-01T02:08:14;96963.38;;;-0.34;83.86
42771;BME280;28426;42.872;25.314;2023-02-01T02:10:44;96964.31;;;-0.35;83.84
42771;BME280;28426;42.872;25.314;2023-02-01T02:13:32;96963.38;;;-0.34;83.70
42771;BME280;28426;42.872;25.314;2023-02-01T02:16:20;96962.63;;;-0.36;83.29
42771;BME280;28426;42.872;25.314;2023-02-01T02:25:24;96973.97;;;-0.36;82.83
42771;BME280;28426;42.872;25.314;2023-02-01T02:28:05;96971.34;;;-0.36;83.11
42771;BME280;28426;42.872;25.314;2023-02-01T02:30:53;96984.34;;;-0.34;83.01
42771;BME280;28426;42.872;25.314;2023-02-01T02:33:51;96985.19;;;-0.34;82.39
42771;BME280;28426;42.872;25.314;2023-02-01T02:36:31;96979.22;;;-0.36;82.48
42771;BME280;28426;42.872;25.314;2023-02-01T02:39:11;96980.75;;;-0.33;82.73
42771;BME280;28426;42.872;25.314;2023-02-01T02:41:49;96989.47;;;-0.33;82.26
42771;BME280;28426;42.872;25.314;2023-02-01T02:44:44;96983.38;;;-0.33;81.72
42771;BME280;28426;42.872;25.314;2023-02-01T02:47:40;96992.22;;;-0.34;81.93
42771;BME280;28426;42.872;25.314;2023-02-01T02:50:24;96994.72;;;-0.33;82.12
42771;BME280;28426;42.872;25.314;2023-02-01T02:53:13;96986.84;;;-0.33;81.08
42771;BME280;28426;42.872;25.314;2023-02-01T02:55:58;96985.03;;;-0.32;81.20
42771;BME280;28426;42.872;25.314;2023-02-01T02:58:42;96987.66;;;-0.32;81.28
42771;BME280;28426;42.872;25.314;2023-02-01T03:01:26;96981.72;;;-0.34;81.30
42771;BME280;28426;42.872;25.314;2023-02-01T03:04:09;96991.25;;;-0.33;80.84
42771;BME280;28426;42.872;25.314;2023-02-01T03:06:51;96985.03;;;-0.32;80.47
42771;BME280;28426;42.872;25.314;2023-02-01T03:09:26;96989.34;;;-0.31;80.74
42771;BME280;28426;42.872;25.314;2023-02-01T03:12:04;96985.78;;;-0.30;80.19
42771;BME280;28426;42.872;25.314;2023-02-01T03:14:51;96989.34;;;-0.31;79.92
42771;BME280;28426;42.872;25.314;2023-02-01T03:17:30;96984.56;;;-0.37;78.76
42771;BME280;28426;42.872;25.314;2023-02-01T03:20:04;96949.03;;;-0.99;75.32
42771;BME280;28426;42.872;25.314;2023-02-01T03:22:41;96988.00;;;-1.19;77.56
42771;BME280;28426;42.872;25.314;2023-02-01T03:25:17;96984.53;;;-1.55;78.18
42771;BME280;28426;42.872;25.314;2023-02-01T03:27:53;96988.78;;;-1.65;83.15
42771;BME280;28426;42.872;25.314;2023-02-01T03:30:25;96983.53;;;-1.65;84.00
42771;BME280;28426;42.872;25.314;2023-02-01T03:32:59;96978.09;;;-1.62;81.96
42771;BME280;28426;42.872;25.314;2023-02-01T03:35:32;96977.34;;;-1.64;82.59
42771;BME280;28426;42.872;25.314;2023-02-01T03:38:11;96975.78;;;-1.67;81.70
42771;BME280;28426;42.872;25.314;2023-02-01T03:40:46;96978.03;;;-1.74;81.92
42771;BME280;28426;42.872;25.314;2023-02-01T03:43:20;96978.34;;;-1.78;84.58
42771;BME280;28426;42.872;25.314;2023-02-01T03:45:54;96973.50;;;-1.72;84.13
42771;BME280;28426;42.872;25.314;2023-02-01T03:48:28;96974.84;;;-1.66;82.83
42771;BME280;28426;42.872;25.314;2023-02-01T03:51:03;96973.28;;;-1.68;82.11
42771;BME280;28426;42.872;25.314;2023-02-01T03:53:39;96979.78;;;-1.74;82.72
42771;BME280;28426;42.872;25.314;2023-02-01T03:56:13;96980.34;;;-1.82;83.40
42771;BME280;28426;42.872;25.314;2023-02-01T03:58:44;96976.94;;;-1.95;83.64
42771;BME280;28426;42.872;25.314;2023-02-01T04:01:31;96983.28;;;-2.11;84.45
42771;BME280;28426;42.872;25.314;2023-02-01T04:04:02;96985.88;;;-2.11;87.60
42771;BME280;28426;42.872;25.314;2023-02-01T04:06:34;96971.75;;;-2.08;88.51
42771;BME280;28426;42.872;25.314;2023-02-01T04:09:08;96988.34;;;-1.97;87.62
42771;BME280;28426;42.872;25.314;2023-02-01T04:11:38;96985.00;;;-1.99;87.82
42771;BME280;28426;42.872;25.314;2023-02-01T04:14:09;96980.97;;;-2.03;87.59
42771;BME280;28426;42.872;25.314;2023-02-01T04:16:40;96992.88;;;-2.12;86.88
42771;BME280;28426;42.872;25.314;2023-02-01T04:19:11;96993.22;;;-2.16;87.30
42771;BME280;28426;42.872;25.314;2023-02-01T04:21:41;96990.16;;;-2.10;88.89
42771;BME280;28426;42.872;25.314;2023-02-01T04:24:15;96983.34;;;-2.00;89.08
42771;BME280;28426;42.872;25.314;2023-02-01T04:26:45;96991.56;;;-1.93;86.94
42771;BME280;28426;42.872;25.314;2023-02-01T04:29:16;96982.38;;;-1.99;86.25
42771;BME280;28426;42.872;25.314;2023-02-01T04:31:47;96992.84;;;-1.99;86.45
42771;BME280;28426;42.872;25.314;2023-02-01T04:34:18;96997.66;;;-2.05;87.81
42771;BME280;28426;42.872;25.314;2023-02-01T04:36:50;96989.44;;;-2.12;88.25
42771;BME280;28426;42.872;25.314;2023-02-01T04:39:23;96995.00;;;-2.17;88.72
42771;BME280;28426;42.872;25.314;2023-02-01T04:41:54;96997.00;;;-2.20;88.91
42771;BME280;28426;42.872;25.314;2023-02-01T04:44:24;96992.81;;;-2.23;88.29
42771;BME280;28426;42.872;25.314;2023-02-01T04:46:55;96995.53;;;-2.25;88.93
42771;BME280;28426;42.872;25.314;2023-02-01T04:49:26;96993.13;;;-2.28;88.38
42771;BME280;28426;42.872;25.314;2023-02-01T04:51:56;97006.19;;;-2.28;88.36
42771;BME280;28426;42.872;25.314;2023-02-01T04:54:29;97003.28;;;-2.23;90.70
42771;BME280;28426;42.872;25.314;2023-02-01T04:57:00;96984.25;;;-2.25;90.56
42771;BME280;28426;42.872;25.314;2023-02-01T04:59:31;97004.50;;;-2.03;87.52
42771;BME280;28426;42.872;25.314;2023-02-01T05:02:01;97009.72;;;-2.03;86.54
42771;BME280;28426;42.872;25.314;2023-02-01T05:04:32;97012.53;;;-2.06;87.17
42771;BME280;28426;42.872;25.314;2023-02-01T05:07:03;97014.66;;;-2.11;87.54
42771;BME280;28426;42.872;25.314;2023-02-01T05:09:36;97014.97;;;-2.16;87.55
42771;BME280;28426;42.872;25.314;2023-02-01T05:12:07;97008.38;;;-2.21;87.32
42771;BME280;28426;42.872;25.314;2023-02-01T05:14:50;97018.81;;;-2.21;86.47
42771;BME280;28426;42.872;25.314;2023-02-01T05:17:21;97021.28;;;-2.31;82.46
42771;BME280;28426;42.872;25.314;2023-02-01T05:19:51;97015.44;;;-2.61;80.48
42771;BME280;28426;42.872;25.314;2023-02-01T05:22:22;97016.03;;;-2.96;79.50
42771;BME280;28426;42.872;25.314;2023-02-01T05:24:55;97020.13;;;-3.33;79.47
42771;BME280;28426;42.872;25.314;2023-02-01T05:27:28;97016.56;;;-3.59;80.07
42771;BME280;28426;42.872;25.314;2023-02-01T05:29:59;97011.91;;;-3.82;81.63
42771;BME280;28426;42.872;25.314;2023-02-01T05:32:30;97014.88;;;-3.73;90.50
42771;BME280;28426;42.872;25.314;2023-02-01T05:35:00;97019.09;;;-3.58;90.39
42771;BME280;28426;42.872;25.314;2023-02-01T05:37:31;97020.50;;;-3.39;90.73
42771;BME280;28426;42.872;25.314;2023-02-01T05:40:05;97019.09;;;-3.17;90.58
42771;BME280;28426;42.872;25.314;2023-02-01T05:42:36;97022.81;;;-2.94;90.33
42771;BME280;28426;42.872;25.314;2023-02-01T05:45:08;97024.00;;;-2.72;89.70
42771;BME280;28426;42.872;25.314;2023-02-01T05:47:39;97029.53;;;-2.51;88.96
42771;BME280;28426;42.872;25.314;2023-02-01T05:50:10;97023.03;;;-2.32;88.39
42771;BME280;28426;42.872;25.314;2023-02-01T05:52:40;97027.81;;;-2.13;87.97
42771;BME280;28426;42.872;25.314;2023-02-01T05:55:14;97028.28;;;-1.94;87.15
42771;BME280;28426;42.872;25.314;2023-02-01T05:57:44;97019.78;;;-1.85;86.57
42771;BME280;28426;42.872;25.314;2023-02-01T06:00:16;97034.91;;;-1.64;85.96
42771;BME280;28426;42.872;25.314;2023-02-01T06:02:48;97037.63;;;-1.53;86.02
42771;BME280;28426;42.872;25.314;2023-02-01T06:05:19;97035.16;;;-1.43;85.60
42771;BME280;28426;42.872;25.314;2023-02-01T06:07:50;97040.56;;;-1.33;84.82
42771;BME280;28426;42.872;25.314;2023-02-01T06:10:23;97038.22;;;-1.25;84.00
42771;BME280;28426;42.872;25.314;2023-02-01T06:12:54;97042.78;;;-1.15;82.86
42771;BME280;28426;42.872;25.314;2023-02-01T06:15:25;97040.44;;;-1.07;82.54
42771;BME280;28426;42.872;25.314;2023-02-01T06:17:56;97037.25;;;-0.99;82.49
42771;BME280;28426;42.872;25.314;2023-02-01T06:20:27;97040.94;;;-0.90;82.61
42771;BME280;28426;42.872;25.314;2023-02-01T06:22:57;97035.38;;;-0.86;81.66
42771;BME280;28426;42.872;25.314;2023-02-01T06:25:30;97040.16;;;-0.80;81.58
42771;BME280;28426;42.872;25.314;2023-02-01T06:28:01;97045.06;;;-0.75;81.78
42771;BME280;28426;42.872;25.314;2023-02-01T06:30:33;97047.31;;;-0.70;81.34
42771;BME280;28426;42.872;25.314;2023-02-01T06:33:03;97036.81;;;-0.70;81.59
42771;BME280;28426;42.872;25.314;2023-02-01T06:35:34;97044.13;;;-0.62;81.49
42771;BME280;28426;42.872;25.314;2023-02-01T06:38:04;97043.78;;;-0.58;81.11
42771;BME280;28426;42.872;25.314;2023-02-01T06:40:38;97047.03;;;-0.54;81.19
42771;BME280;28426;42.872;25.314;2023-02-01T06:43:09;97040.69;;;-0.51;80.10
42771;BME280;28426;42.872;25.314;2023-02-01T06:45:40;97050.13;;;-0.49;80.45
42771;BME280;28426;42.872;25.314;2023-02-01T06:48:10;97042.97;;;-0.47;80.09
42771;BME280;28426;42.872;25.314;2023-02-01T06:50:41;97049.63;;;-0.43;80.31
42771;BME280;28426;42.872;25.314;2023-02-01T06:53:11;97043.44;;;-0.42;80.56
42771;BME280;28426;42.872;25.314;2023-02-01T06:55:51;97042.25;;;-0.37;80.10
42771;BME280;28426;42.872;25.314;2023-02-01T06:58:22;97038.66;;;-0.36;79.64
42771;BME280;28426;42.872;25.314;2023-02-01T07:00:53;97038.44;;;-0.33;79.94
42771;BME280;28426;42.872;25.314;2023-02-01T07:03:24;97034.63;;;-0.29;80.33
42771;BME280;28426;42.872;25.314;2023-02-01T07:05:56;97048.34;;;-0.25;80.37
42771;BME280;28426;42.872;25.314;2023-02-01T07:08:28;97048.97;;;-0.22;80.31
42771;BME280;28426;42.872;25.314;2023-02-01T07:11:04;97024.38;;;-0.32;80.35
42771;BME280;28426;42.872;25.314;2023-02-01T07:13:36;97056.09;;;-0.12;80.10
42771;BME280;28426;42.872;25.314;2023-02-01T07:16:10;97055.84;;;-0.09;79.83
42771;BME280;28426;42.872;25.314;2023-02-01T07:18:41;97062.69;;;-0.07;78.66
42771;BME280;28426;42.872;25.314;2023-02-01T07:21:13;97047.28;;;-0.11;79.07
42771;BME280;28426;42.872;25.314;2023-02-01T07:23:43;97054.91;;;-0.08;77.91
42771;BME280;28426;42.872;25.314;2023-02-01T07:26:17;97071.13;;;-0.03;78.63
42771;BME280;28426;42.872;25.314;2023-02-01T07:28:48;97062.31;;;-0.02;77.72
42771;BME280;28426;42.872;25.314;2023-02-01T07:31:19;97072.31;;;0.04;78.08
42771;BME280;28426;42.872;25.314;2023-02-01T07:33:50;97074.00;;;0.05;77.96
42771;BME280;28426;42.872;25.314;2023-02-01T07:36:24;97069.94;;;0.12;77.90
42771;BME280;28426;42.872;25.314;2023-02-01T07:38:54;97074.56;;;0.20;77.80
42771;BME280;28426;42.872;25.314;2023-02-01T07:41:27;97073.38;;;0.24;77.06
42771;BME280;28426;42.872;25.314;2023-02-01T07:43:58;97079.22;;;0.28;76.84
42771;BME280;28426;42.872;25.314;2023-02-01T07:46:28;97077.31;;;0.30;76.53
42771;BME280;28426;42.872;25.314;2023-02-01T07:48:59;97084.00;;;0.34;76.58
42771;BME280;28426;42.872;25.314;2023-02-01T07:51:30;97083.03;;;0.35;76.97
42771;BME280;28426;42.872;25.314;2023-02-01T07:54:00;97082.09;;;0.36;76.05
42771;BME280;28426;42.872;25.314;2023-02-01T07:56:34;97086.38;;;0.37;75.87
42771;BME280;28426;42.872;25.314;2023-02-01T07:59:04;97075.75;;;0.39;75.89
42771;BME280;28426;42.872;25.314;2023-02-01T08:01:35;97082.56;;;0.42;74.88
42771;BME280;28426;42.872;25.314;2023-02-01T08:04:03;97083.38;;;0.42;75.50
42771;BME280;28426;42.872;25.314;2023-02-01T08:06:34;97084.91;;;0.45;75.65
42771;BME280;28426;42.872;25.314;2023-02-01T08:09:05;97086.34;;;0.49;75.94
42771;BME280;28426;42.872;25.314;2023-02-01T08:11:40;97090.53;;;0.51;75.00
42771;BME280;28426;42.872;25.314;2023-02-01T08:14:11;97087.78;;;0.53;74.50
42771;BME280;28426;42.872;25.314;2023-02-01T08:16:42;97094.47;;;0.57;75.18
42771;BME280;28426;42.872;25.314;2023-02-01T08:19:12;97102.22;;;0.59;74.91
42771;BME280;28426;42.872;25.314;2023-02-01T08:21:43;97098.91;;;0.57;74.24
42771;BME280;28426;42.872;25.314;2023-02-01T08:24:16;97102.81;;;0.62;75.13
42771;BME280;28426;42.872;25.314;2023-02-01T08:26:49;97095.78;;;0.63;75.01
42771;BME280;28426;42.872;25.314;2023-02-01T08:29:20;97094.69;;;0.65;74.79
42771;BME280;28426;42.872;25.314;2023-02-01T08:31:50;97089.91;;;0.71;75.30
42771;BME280;28426;42.872;25.314;2023-02-01T08:34:22;97086.06;;;0.75;75.15
42771;BME280;28426;42.872;25.314;2023-02-01T08:36:52;97082.22;;;0.79;74.24
42771;BME280;28426;42.872;25.314;2023-02-01T08:39:27;97080.06;;;0.84;74.89
42771;BME280;28426;42.872;25.314;2023-02-01T08:42:00;97092.00;;;0.88;75.11
42771;BME280;28426;42.872;25.314;2023-02-01T08:44:43;97088.16;;;0.93;74.36
42771;BME280;28426;42.872;25.314;2023-02-01T08:47:14;97080.03;;;0.96;74.23
42771;BME280;28426;42.872;25.314;2023-02-01T08:49:45;97080.75;;;0.98;73.79
42771;BME280;28426;42.872;25.314;2023-02-01T08:52:15;97085.75;;;1.01;73.86
42771;BME280;28426;42.872;25.314;2023-02-01T08:54:46;97085.50;;;1.04;74.06
42771;BME280;28426;42.872;25.314;2023-02-01T08:57:19;97083.34;;;1.09;73.22
42771;BME280;28426;42.872;25.314;2023-02-01T08:59:50;97075.06;;;1.14;74.00
42771;BME280;28426;42.872;25.314;2023-02-01T09:02:21;97083.28;;;1.21;73.50
42771;BME280;28426;42.872;25.314;2023-02-01T09:04:51;97077.66;;;1.25;73.45
42771;BME280;28426;42.872;25.314;2023-02-01T09:07:22;97085.75;;;1.34;73.56
42771;BME280;28426;42.872;25.314;2023-02-01T09:09:53;97082.59;;;1.40;72.91
42771;BME280;28426;42.872;25.314;2023-02-01T09:12:33;97086.38;;;1.47;73.10
42771;BME280;28426;42.872;25.314;2023-02-01T09:15:05;97082.25;;;1.54;71.25
42771;BME280;28426;42.872;25.314;2023-02-01T09:17:36;97088.44;;;1.65;72.54
42771;BME280;28426;42.872;25.314;2023-02-01T09:20:10;97080.59;;;1.75;71.64
42771;BME280;28426;42.872;25.314;2023-02-01T09:22:41;97074.53;;;1.84;70.13
42771;BME280;28426;42.872;25.314;2023-02-01T09:25:12;97079.00;;;1.93;71.27
42771;BME280;28426;42.872;25.314;2023-02-01T09:27:45;97057.28;;;1.91;71.12
42771;BME280;28426;42.872;25.314;2023-02-01T09:30:16;97079.00;;;2.15;71.27
42771;BME280;28426;42.872;25.314;2023-02-01T09:32:46;97079.00;;;2.25;70.23
42771;BME280;28426;42.872;25.314;2023-02-01T09:35:17;97065.19;;;2.32;69.87
42771;BME280;28426;42.872;25.314;2023-02-01T09:37:48;97060.66;;;2.44;70.33
42771;BME280;28426;42.872;25.314;2023-02-01T09:40:19;97061.25;;;2.58;69.91
42771;BME280;28426;42.872;25.314;2023-02-01T09:43:11;97065.84;;;2.76;67.87
42771;BME280;28426;42.872;25.314;2023-02-01T09:45:52;97057.53;;;2.90;68.39
42771;BME280;28426;42.872;25.314;2023-02-01T09:48:29;97050.59;;;2.99;69.02
42771;BME280;28426;42.872;25.314;2023-02-01T09:51:06;97062.25;;;3.06;67.98
42771;BME280;28426;42.872;25.314;2023-02-01T09:53:42;97051.44;;;3.09;66.66
42771;BME280;28426;42.872;25.314;2023-02-01T09:56:20;97052.97;;;3.12;66.17
42771;BME280;28426;42.872;25.314;2023-02-01T09:58:58;97043.94;;;3.14;65.30
42771;BME280;28426;42.872;25.314;2023-02-01T10:01:32;97041.00;;;3.18;65.92
42771;BME280;28426;42.872;25.314;2023-02-01T10:04:06;97044.22;;;3.21;65.60
42771;BME280;28426;42.872;25.314;2023-02-01T10:06:48;97036.19;;;3.23;65.42
42771;BME280;28426;42.872;25.314;2023-02-01T10:09:36;97024.50;;;3.25;64.97
42771;BME280;28426;42.872;25.314;2023-02-01T10:12:37;97015.34;;;3.30;66.20
42771;BME280;28426;42.872;25.314;2023-02-01T10:15:26;97010.34;;;3.36;66.61
42771;BME280;28426;42.872;25.314;2023-02-01T10:18:13;96996.44;;;3.44;66.37
42771;BME280;28426;42.872;25.314;2023-02-01T10:20:55;97000.28;;;3.60;66.24
42771;BME280;28426;42.872;25.314;2023-02-01T10:23:40;96997.16;;;3.74;67.21
42771;BME280;28426;42.872;25.314;2023-02-01T10:26:18;96993.09;;;3.90;65.80
42771;BME280;28426;42.872;25.314;2023-02-01T10:28:51;96983.03;;;4.03;66.73
42771;BME280;28426;42.872;25.314;2023-02-01T10:31:27;96990.31;;;4.19;65.89
42771;BME280;28426;42.872;25.314;2023-02-01T10:34:01;96981.06;;;4.34;65.04
42771;BME280;28426;42.872;25.314;2023-02-01T10:36:41;96975.25;;;4.48;64.91
42771;BME280;28426;42.872;25.314;2023-02-01T10:39:15;96967.41;;;4.56;63.28
42771;BME280;28426;42.872;25.314;2023-02-01T10:41:46;96967.19;;;4.68;64.61
42771;BME280;28426;42.872;25.314;2023-02-01T10:44:20;96948.47;;;4.79;64.01
42771;BME280;28426;42.872;25.314;2023-02-01T10:46:55;96956.97;;;4.91;63.45
42771;BME280;28426;42.872;25.314;2023-02-01T10:49:34;96951.63;;;5.01;62.43
42771;BME280;28426;42.872;25.314;2023-02-01T10:52:13;96946.06;;;5.13;62.50
42771;BME280;28426;42.872;25.314;2023-02-01T10:54:46;96942.03;;;5.27;60.99
42771;BME280;28426;42.872;25.314;2023-02-01T10:57:22;96928.38;;;5.40;61.85
42771;BME280;28426;42.872;25.314;2023-02-01T10:59:55;96934.91;;;5.54;61.42
42771;BME280;28426;42.872;25.314;2023-02-01T11:02:31;96942.41;;;5.67;60.71
42771;BME280;28426;42.872;25.314;2023-02-01T11:05:05;96935.03;;;5.79;60.59
42771;BME280;28426;42.872;25.314;2023-02-01T11:07:39;96920.00;;;5.87;60.66
42771;BME280;28426;42.872;25.314;2023-02-01T11:10:35;96913.03;;;5.86;55.00
42771;BME280;28426;42.872;25.314;2023-02-01T11:13:13;96917.72;;;5.93;59.52
42771;BME280;28426;42.872;25.314;2023-02-01T11:15:47;96925.38;;;6.04;60.87
42771;BME280;28426;42.872;25.314;2023-02-01T11:18:29;96915.16;;;6.09;58.14
42771;BME280;28426;42.872;25.314;2023-02-01T11:21:00;96906.41;;;6.17;58.94
42771;BME280;28426;42.872;25.314;2023-02-01T11:23:32;96912.34;;;6.19;56.60
42771;BME280;28426;42.872;25.314;2023-02-01T11:26:10;96908.53;;;6.22;57.83
42771;BME280;28426;42.872;25.314;2023-02-01T11:28:50;96897.63;;;6.25;59.07
42771;BME280;28426;42.872;25.314;2023-02-01T11:31:22;96898.97;;;6.29;57.59
42771;BME280;28426;42.872;25.314;2023-02-01T11:34:00;96901.94;;;6.34;57.81
42771;BME280;28426;42.872;25.314;2023-02-01T11:36:36;96905.78;;;6.40;58.39
42771;BME280;28426;42.872;25.314;2023-02-01T11:39:20;96902.28;;;6.48;56.00
42771;BME280;28426;42.872;25.314;2023-02-01T11:42:04;96904.63;;;6.51;56.38
42771;BME280;28426;42.872;25.314;2023-02-01T11:44:37;96902.63;;;6.53;56.71
42771;BME280;28426;42.872;25.314;2023-02-01T11:47:23;96904.94;;;6.48;56.37
42771;BME280;28426;42.872;25.314;2023-02-01T11:49:58;96899.47;;;6.41;55.25
42771;BME280;28426;42.872;25.314;2023-02-01T11:52:46;96906.41;;;6.34;56.02
42771;BME280;28426;42.872;25.314;2023-02-01T11:55:49;96896.97;;;6.23;54.02
42771;BME280;28426;42.872;25.314;2023-02-01T11:58:49;96895.78;;;6.09;54.55
42771;BME280;28426;42.872;25.314;2023-02-01T12:01:32;96898.09;;;6.04;55.18
42771;BME280;28426;42.872;25.314;2023-02-01T12:04:36;96892.88;;;5.94;55.02
42771;BME280;28426;42.872;25.314;2023-02-01T12:07:18;96893.69;;;5.86;56.28
42771;BME280;28426;42.872;25.314;2023-02-01T12:09:59;96887.88;;;5.82;56.78
42771;BME280;28426;42.872;25.314;2023-02-01T12:12:38;96881.56;;;5.75;55.73
42771;BME280;28426;42.872;25.314;2023-02-01T12:15:30;96879.72;;;5.67;55.40
42771;BME280;28426;42.872;25.314;2023-02-01T12:18:33;96877.53;;;5.62;55.74
42771;BME280;28426;42.872;25.314;2023-02-01T12:21:22;96881.34;;;5.60;55.83
42771;BME280;28426;42.872;25.314;2023-02-01T12:24:23;96868.25;;;5.58;56.73
42771;BME280;28426;42.872;25.314;2023-02-01T12:27:08;96870.75;;;5.60;57.25
42771;BME280;28426;42.872;25.314;2023-02-01T12:29:56;96869.94;;;5.68;56.92
42771;BME280;28426;42.872;25.314;2023-02-01T12:32:50;96870.28;;;5.73;55.96
42771;BME280;28426;42.872;25.314;2023-02-01T12:35:36;96878.25;;;5.81;57.04
42771;BME280;28426;42.872;25.314;2023-02-01T12:38:16;96880.94;;;5.89;56.52
42771;BME280;28426;42.872;25.314;2023-02-01T12:41:03;96872.72;;;6.01;57.89
42771;BME280;28426;42.872;25.314;2023-02-01T12:43:42;96880.72;;;6.09;56.85
42771;BME280;28426;42.872;25.314;2023-02-01T12:46:18;96876.56;;;6.15;57.05
42771;BME280;28426;42.872;25.314;2023-02-01T12:48:55;96888.34;;;6.21;56.01
42771;BME280;28426;42.872;25.314;2023-02-01T12:51:29;96878.59;;;6.21;56.72
42771;BME280;28426;42.872;25.314;2023-02-01T12:54:09;96881.41;;;6.20;55.68
42771;BME280;28426;42.872;25.314;2023-02-01T12:56:48;96875.59;;;6.16;54.88
42771;BME280;28426;42.872;25.314;2023-02-01T12:59:24;96884.03;;;6.11;54.36
42771;BME280;28426;42.872;25.314;2023-02-01T13:01:59;96884.69;;;6.05;55.32
42771;BME280;28426;42.872;25.314;2023-02-01T13:04:33;96881.63;;;6.00;54.97
42771;BME280;28426;42.872;25.314;2023-02-01T13:07:09;96877.16;;;5.92;54.61
42771;BME280;28426;42.872;25.314;2023-02-01T13:09:48;96857.44;;;5.86;55.47
42771;BME280;28426;42.872;25.314;2023-02-01T13:12:38;96861.03;;;5.77;53.98
42771;BME280;28426;42.872;25.314;2023-02-01T13:15:13;96862.34;;;5.73;55.52
42771;BME280;28426;42.872;25.314;2023-02-01T13:17:46;96867.28;;;5.68;55.69
42771;BME280;28426;42.872;25.314;2023-02-01T13:20:22;96867.63;;;5.65;55.99
42771;BME280;28426;42.872;25.314;2023-02-01T13:22:59;96864.16;;;5.64;55.66
42771;BME280;28426;42.872;25.314;2023-02-01T13:25:35;96858.19;;;5.62;54.36
42771;BME280;28426;42.872;25.314;2023-02-01T13:28:17;96862.66;;;5.61;55.34
42771;BME280;28426;42.872;25.314;2023-02-01T13:31:07;96873.09;;;5.63;56.31
42771;BME280;28426;42.872;25.314;2023-02-01T13:33:54;96870.44;;;5.63;55.82
42771;BME280;28426;42.872;25.314;2023-02-01T13:39:42;96867.94;;;5.61;55.21
42771;BME280;28426;42.872;25.314;2023-02-01T13:42:16;96865.44;;;5.60;55.41
42771;BME280;28426;42.872;25.314;2023-02-01T13:44:56;96865.59;;;5.58;55.54
42771;BME280;28426;42.872;25.314;2023-02-01T13:47:32;96864.94;;;5.56;54.91